createdAt,value
2022-08-04T00:02:06.758Z,0.60
2022-08-04T00:07:10.994Z,0.60
2022-08-04T00:12:04.075Z,0.70
2022-08-04T00:16:55.198Z,0.70
2022-08-04T00:21:49.155Z,0.70
2022-08-04T00:26:42.034Z,0.80
2022-08-04T00:31:54.304Z,0.68
2022-08-04T00:36:43.449Z,0.70
2022-08-04T00:41:56.809Z,0.80
2022-08-04T00:47:04.436Z,0.83
2022-08-04T00:52:31.830Z,0.93
2022-08-04T00:57:38.896Z,0.93
2022-08-04T01:02:38.358Z,0.90
2022-08-04T01:07:46.712Z,1.00
2022-08-04T01:13:02.136Z,0.80
2022-08-04T01:18:06.650Z,0.73
2022-08-04T01:23:31.715Z,0.65
2022-08-04T01:28:33.060Z,0.63
2022-08-04T01:33:29.815Z,0.70
2022-08-04T01:38:22.332Z,0.67
2022-08-04T01:43:13.015Z,0.80
2022-08-04T01:48:05.696Z,0.88
2022-08-04T01:52:58.720Z,0.80
2022-08-04T01:57:50.061Z,0.60
2022-08-04T02:02:39.796Z,0.68
2022-08-04T02:07:43.164Z,0.80
2022-08-04T02:12:46.451Z,0.70
2022-08-04T02:17:47.301Z,0.88
2022-08-04T02:22:41.425Z,0.60
2022-08-04T02:27:59.746Z,1.00
2022-08-04T02:32:54.239Z,0.85
2022-08-04T02:42:53.858Z,0.63
2022-08-04T02:48:23.687Z,0.60
2022-08-04T02:52:55.568Z,0.70
2022-08-04T02:57:50.793Z,0.70
2022-08-04T03:02:57.128Z,0.93
2022-08-04T03:08:10.825Z,0.60
2022-08-04T03:13:29.728Z,1.10
2022-08-04T03:18:52.233Z,0.70
2022-08-04T03:24:09.901Z,0.70
2022-08-04T03:29:36.569Z,0.70
2022-08-04T03:34:46.668Z,0.70
2022-08-04T03:40:10.597Z,0.60
2022-08-04T03:45:31.496Z,0.88
2022-08-04T03:51:09.350Z,1.10
2022-08-04T03:56:43.405Z,0.80
2022-08-04T04:02:06.856Z,0.70
2022-08-04T04:07:24.385Z,0.70
2022-08-04T04:12:51.551Z,1.20
2022-08-04T04:18:02.690Z,1.20
2022-08-04T04:23:08.920Z,1.17
2022-08-04T04:28:44.488Z,1.10
2022-08-04T04:33:46.828Z,1.30
2022-08-04T04:39:03.025Z,1.00
2022-08-04T04:44:17.764Z,1.10
2022-08-04T04:49:17.500Z,1.05
2022-08-04T04:54:20.519Z,1.55
2022-08-04T04:59:15.658Z,1.20
2022-08-04T05:04:32.735Z,1.52
2022-08-04T05:09:38.053Z,1.40
2022-08-04T05:14:41.133Z,1.20
2022-08-04T05:19:47.294Z,1.20
2022-08-04T05:24:44.433Z,1.30
2022-08-04T05:29:41.123Z,1.43
2022-08-04T05:34:34.679Z,0.93
2022-08-04T05:39:33.865Z,1.00
2022-08-04T05:44:28.860Z,0.97
2022-08-04T05:49:22.354Z,1.00
2022-08-04T05:54:14.533Z,0.95
2022-08-04T05:59:07.873Z,0.95
2022-08-04T06:04:06.880Z,0.95
2022-08-04T06:09:02.545Z,1.10
2022-08-04T06:14:00.690Z,0.70
2022-08-04T06:20:00.352Z,0.80
2022-08-04T06:24:14.367Z,1.17
2022-08-04T06:29:11.290Z,0.90
2022-08-04T06:34:11.028Z,0.60
2022-08-04T06:39:03.111Z,0.70
2022-08-04T06:43:57.348Z,0.60
2022-08-04T06:48:49.323Z,0.70
2022-08-04T06:53:39.102Z,0.70
2022-08-04T06:58:33.595Z,0.60
2022-08-04T07:03:26.057Z,0.60
2022-08-04T07:08:17.098Z,0.70
2022-08-04T07:13:07.908Z,0.52
2022-08-04T07:18:03.715Z,0.60
2022-08-04T07:22:57.017Z,0.50
2022-08-04T07:27:47.813Z,0.50
2022-08-04T07:32:41.749Z,0.50
2022-08-04T07:37:39.298Z,0.50
2022-08-04T07:42:32.932Z,0.40
2022-08-04T07:47:25.508Z,0.90
2022-08-04T07:52:15.984Z,0.50
2022-08-04T07:57:06.637Z,0.50
2022-08-04T08:02:02.613Z,0.50
2022-08-04T08:06:53.936Z,0.50
2022-08-04T08:12:36.409Z,0.40
2022-08-04T08:16:54.188Z,0.70
2022-08-04T08:21:59.489Z,0.60
2022-08-04T08:26:50.358Z,0.40
2022-08-04T08:31:56.531Z,0.30
2022-08-04T08:36:56.528Z,0.40
2022-08-04T08:42:18.785Z,0.30
2022-08-04T08:47:22.885Z,0.40
2022-08-04T08:53:01.400Z,0.30
2022-08-04T08:58:05.692Z,0.45
2022-08-04T09:03:25.272Z,0.50
2022-08-04T09:08:32.716Z,0.32
2022-08-04T09:13:27.811Z,0.40
2022-08-04T09:18:24.831Z,0.40
2022-08-04T09:23:31.240Z,0.32
2022-08-04T09:28:52.282Z,0.50
2022-08-04T09:33:47.381Z,0.30
2022-08-04T09:38:52.558Z,0.60
2022-08-04T09:43:59.095Z,0.47
2022-08-04T09:49:07.823Z,0.33
2022-08-04T09:54:09.712Z,0.50
2022-08-04T09:59:26.190Z,0.32
2022-08-04T10:04:20.076Z,0.40
2022-08-04T10:09:35.883Z,0.40
2022-08-04T10:14:40.543Z,0.40
2022-08-04T10:19:31.925Z,0.50
2022-08-04T10:24:35.695Z,0.40
2022-08-04T10:29:30.450Z,0.30
2022-08-04T10:34:24.675Z,0.40
2022-08-04T10:39:43.792Z,0.40
2022-08-04T10:44:43.423Z,0.40
2022-08-04T10:49:38.230Z,0.50
2022-08-04T10:54:32.050Z,0.40
2022-08-04T10:59:29.536Z,0.50
2022-08-04T11:04:29.264Z,0.50
2022-08-04T11:09:20.842Z,0.40
2022-08-04T11:14:14.011Z,0.50
2022-08-04T11:19:13.626Z,0.40
2022-08-04T11:24:11.723Z,0.40
2022-08-04T11:29:08.430Z,0.40
2022-08-04T11:34:06.058Z,0.38
2022-08-04T11:39:03.112Z,0.40
2022-08-04T11:44:02.543Z,0.47
2022-08-04T11:53:46.872Z,0.50
2022-08-04T12:03:37.793Z,0.50
2022-08-04T12:08:39.307Z,0.40
2022-08-04T12:13:35.815Z,0.40
2022-08-04T12:18:32.764Z,0.50
2022-08-04T12:23:27.065Z,0.60
2022-08-04T12:28:23.509Z,0.63
2022-08-04T12:33:18.359Z,0.47
2022-08-04T12:38:14.711Z,0.50
2022-08-04T12:43:11.766Z,0.57
2022-08-04T12:48:03.059Z,0.90
2022-08-04T12:53:04.535Z,0.60
2022-08-04T12:57:58.581Z,0.70
2022-08-04T13:02:50.168Z,0.80
2022-08-04T13:07:43.901Z,0.60
2022-08-04T13:12:35.850Z,0.40
2022-08-04T13:17:29.867Z,0.60
2022-08-04T13:22:28.162Z,0.40
2022-08-04T13:27:20.841Z,0.50
2022-08-04T13:32:11.930Z,0.30
2022-08-04T13:41:59.114Z,0.40
2022-08-04T13:46:52.600Z,0.40
2022-08-04T13:51:58.186Z,0.30
2022-08-04T13:56:53.912Z,0.30
2022-08-04T14:01:47.442Z,0.30
2022-08-04T14:06:38.781Z,0.30
2022-08-04T14:12:06.503Z,0.30
2022-08-04T14:17:19.668Z,0.40
2022-08-04T14:22:10.387Z,0.30
2022-08-04T14:27:05.183Z,0.50
2022-08-04T14:32:06.180Z,0.57
2022-08-04T14:37:16.883Z,0.38
2022-08-04T14:42:09.602Z,0.30
2022-08-04T14:47:00.375Z,0.40
2022-08-04T14:51:57.084Z,0.30
2022-08-04T14:56:58.076Z,0.30
2022-08-04T15:02:00.983Z,0.40
2022-08-04T15:06:51.179Z,0.30
2022-08-04T15:11:43.583Z,0.40
2022-08-04T15:16:36.583Z,0.38
2022-08-04T15:21:44.355Z,0.43
2022-08-04T15:32:07.906Z,0.30
2022-08-04T15:36:56.291Z,0.50
2022-08-04T15:41:56.194Z,0.30
2022-08-04T15:47:13.994Z,0.45
2022-08-04T15:52:22.215Z,0.65
2022-08-04T15:57:13.297Z,0.40
2022-08-04T16:02:32.840Z,0.40
2022-08-04T16:07:56.787Z,0.40
2022-08-04T16:12:57.216Z,0.45
2022-08-04T16:17:47.528Z,0.40
2022-08-04T16:22:43.811Z,0.77
2022-08-04T16:27:41.566Z,0.50
2022-08-04T16:32:43.033Z,0.45
2022-08-04T16:37:35.638Z,0.38
2022-08-04T16:42:35.877Z,0.40
2022-08-04T16:48:10.712Z,0.50
2022-08-04T16:53:00.924Z,0.50
2022-08-04T16:57:54.336Z,0.30
2022-08-04T17:02:46.159Z,0.30
2022-08-04T17:08:26.912Z,0.40
